sensor_id;sensor_type;location;lat;lon;timestamp;P1;durP1;ratioP1;P2;durP2;ratioP2
50689;SDS011;71367;48.298;11.238;2024-01-25T00:07:13;14.15;;;3.22;;
50689;SDS011;71367;48.298;11.238;2024-01-25T00:22:23;16.40;;;3.50;;
50689;SDS011;71367;48.298;11.238;2024-01-25T00:37:28;9.90;;;2.58;;
50689;SDS011;71367;48.298;11.238;2024-01-25T00:52:33;9.02;;;2.35;;
50689;SDS011;71367;48.298;11.238;2024-01-25T01:07:38;11.68;;;2.85;;
50689;SDS011;71367;48.298;11.238;2024-01-25T01:22:42;10.95;;;2.58;;
50689;SDS011;71367;48.298;11.238;2024-01-25T01:37:45;11.25;;;2.50;;
50689;SDS011;71367;48.298;11.238;2024-01-25T01:52:49;17.08;;;3.30;;
50689;SDS011;71367;48.298;11.238;2024-01-25T02:07:53;13.82;;;2.80;;
50689;SDS011;71367;48.298;11.238;2024-01-25T02:22:57;16.83;;;3.33;;
50689;SDS011;71367;48.298;11.238;2024-01-25T02:38:00;20.20;;;3.47;;
50689;SDS011;71367;48.298;11.238;2024-01-25T02:53:04;17.15;;;3.63;;
50689;SDS011;71367;48.298;11.238;2024-01-25T03:08:07;10.65;;;2.80;;
50689;SDS011;71367;48.298;11.238;2024-01-25T03:23:11;13.45;;;3.70;;
50689;SDS011;71367;48.298;11.238;2024-01-25T03:38:15;17.88;;;2.83;;
50689;SDS011;71367;48.298;11.238;2024-01-25T03:53:18;9.95;;;3.33;;
50689;SDS011;71367;48.298;11.238;2024-01-25T04:08:22;17.15;;;3.42;;
50689;SDS011;71367;48.298;11.238;2024-01-25T04:23:25;18.15;;;4.38;;
50689;SDS011;71367;48.298;11.238;2024-01-25T04:38:29;12.43;;;2.47;;
50689;SDS011;71367;48.298;11.238;2024-01-25T04:53:33;13.38;;;2.42;;
50689;SDS011;71367;48.298;11.238;2024-01-25T05:08:36;18.38;;;5.10;;
50689;SDS011;71367;48.298;11.238;2024-01-25T05:23:40;13.50;;;3.58;;
50689;SDS011;71367;48.298;11.238;2024-01-25T05:38:43;10.73;;;2.65;;
50689;SDS011;71367;48.298;11.238;2024-01-25T05:53:47;10.73;;;2.70;;
50689;SDS011;71367;48.298;11.238;2024-01-25T06:08:50;29.17;;;10.55;;
50689;SDS011;71367;48.298;11.238;2024-01-25T06:23:54;13.88;;;3.55;;
50689;SDS011;71367;48.298;11.238;2024-01-25T06:38:57;14.40;;;3.58;;
50689;SDS011;71367;48.298;11.238;2024-01-25T06:54:03;18.23;;;5.40;;
50689;SDS011;71367;48.298;11.238;2024-01-25T07:09:06;14.02;;;3.72;;
50689;SDS011;71367;48.298;11.238;2024-01-25T07:24:10;14.10;;;3.85;;
50689;SDS011;71367;48.298;11.238;2024-01-25T07:39:13;20.73;;;7.68;;
50689;SDS011;71367;48.298;11.238;2024-01-25T07:54:17;26.02;;;9.70;;
50689;SDS011;71367;48.298;11.238;2024-01-25T08:09:21;10.95;;;3.33;;
50689;SDS011;71367;48.298;11.238;2024-01-25T08:24:25;18.85;;;4.47;;
50689;SDS011;71367;48.298;11.238;2024-01-25T08:39:29;14.57;;;4.22;;
50689;SDS011;71367;48.298;11.238;2024-01-25T08:54:32;16.65;;;4.43;;
50689;SDS011;71367;48.298;11.238;2024-01-25T09:09:36;17.40;;;3.95;;
50689;SDS011;71367;48.298;11.238;2024-01-25T09:24:39;22.23;;;4.57;;
50689;SDS011;71367;48.298;11.238;2024-01-25T09:39:43;23.30;;;6.13;;
50689;SDS011;71367;48.298;11.238;2024-01-25T09:54:47;20.88;;;4.65;;
50689;SDS011;71367;48.298;11.238;2024-01-25T10:09:51;25.30;;;7.70;;
50689;SDS011;71367;48.298;11.238;2024-01-25T10:24:55;11.95;;;3.50;;
50689;SDS011;71367;48.298;11.238;2024-01-25T10:39:59;19.65;;;5.03;;
50689;SDS011;71367;48.298;11.238;2024-01-25T10:55:03;21.83;;;4.43;;
50689;SDS011;71367;48.298;11.238;2024-01-25T11:10:11;12.02;;;4.50;;
50689;SDS011;71367;48.298;11.238;2024-01-25T11:25:22;12.93;;;4.07;;
50689;SDS011;71367;48.298;11.238;2024-01-25T11:40:25;19.08;;;4.68;;
50689;SDS011;71367;48.298;11.238;2024-01-25T11:55:29;18.33;;;5.30;;
50689;SDS011;71367;48.298;11.238;2024-01-25T12:10:33;19.25;;;3.95;;
50689;SDS011;71367;48.298;11.238;2024-01-25T12:25:39;20.02;;;4.13;;
50689;SDS011;71367;48.298;11.238;2024-01-25T12:40:45;15.55;;;3.45;;
50689;SDS011;71367;48.298;11.238;2024-01-25T12:55:50;12.45;;;3.65;;
50689;SDS011;71367;48.298;11.238;2024-01-25T13:10:53;13.57;;;3.20;;
50689;SDS011;71367;48.298;11.238;2024-01-25T13:25:57;16.02;;;3.60;;
50689;SDS011;71367;48.298;11.238;2024-01-25T13:41:00;11.45;;;2.90;;
50689;SDS011;71367;48.298;11.238;2024-01-25T13:56:04;10.38;;;2.65;;
50689;SDS011;71367;48.298;11.238;2024-01-25T14:11:08;14.52;;;3.10;;
50689;SDS011;71367;48.298;11.238;2024-01-25T14:26:12;13.75;;;3.03;;
50689;SDS011;71367;48.298;11.238;2024-01-25T14:41:16;12.10;;;3.08;;
50689;SDS011;71367;48.298;11.238;2024-01-25T14:56:19;12.50;;;4.93;;
50689;SDS011;71367;48.298;11.238;2024-01-25T15:11:24;19.58;;;8.20;;
50689;SDS011;71367;48.298;11.238;2024-01-25T15:26:28;17.27;;;7.57;;
50689;SDS011;71367;48.298;11.238;2024-01-25T15:41:31;16.73;;;6.25;;
50689;SDS011;71367;48.298;11.238;2024-01-25T15:56:35;11.07;;;4.07;;
50689;SDS011;71367;48.298;11.238;2024-01-25T16:11:38;12.35;;;3.33;;
50689;SDS011;71367;48.298;11.238;2024-01-25T16:26:42;8.07;;;3.03;;
50689;SDS011;71367;48.298;11.238;2024-01-25T16:41:45;10.20;;;3.30;;
50689;SDS011;71367;48.298;11.238;2024-01-25T16:56:49;16.95;;;5.80;;
50689;SDS011;71367;48.298;11.238;2024-01-25T17:11:52;12.68;;;3.85;;
50689;SDS011;71367;48.298;11.238;2024-01-25T17:26:56;8.73;;;2.67;;
50689;SDS011;71367;48.298;11.238;2024-01-25T17:42:00;9.63;;;2.28;;
50689;SDS011;71367;48.298;11.238;2024-01-25T17:57:04;9.93;;;3.33;;
50689;SDS011;71367;48.298;11.238;2024-01-25T18:12:08;10.15;;;3.95;;
50689;SDS011;71367;48.298;11.238;2024-01-25T18:27:17;13.15;;;4.25;;
50689;SDS011;71367;48.298;11.238;2024-01-25T18:42:21;8.93;;;5.00;;
50689;SDS011;71367;48.298;11.238;2024-01-25T18:57:26;12.10;;;5.25;;
50689;SDS011;71367;48.298;11.238;2024-01-25T19:12:30;6.53;;;3.42;;
50689;SDS011;71367;48.298;11.238;2024-01-25T19:27:34;5.50;;;2.72;;
50689;SDS011;71367;48.298;11.238;2024-01-25T19:42:38;7.03;;;3.28;;
50689;SDS011;71367;48.298;11.238;2024-01-25T19:57:41;9.95;;;4.10;;
50689;SDS011;71367;48.298;11.238;2024-01-25T20:12:45;6.15;;;3.70;;
50689;SDS011;71367;48.298;11.238;2024-01-25T20:27:49;7.25;;;4.32;;
50689;SDS011;71367;48.298;11.238;2024-01-25T20:42:53;11.15;;;5.75;;
50689;SDS011;71367;48.298;11.238;2024-01-25T20:57:56;9.35;;;6.20;;
50689;SDS011;71367;48.298;11.238;2024-01-25T21:13:01;10.15;;;6.70;;
50689;SDS011;71367;48.298;11.238;2024-01-25T21:28:05;11.70;;;7.03;;
50689;SDS011;71367;48.298;11.238;2024-01-25T21:43:09;8.95;;;6.30;;
50689;SDS011;71367;48.298;11.238;2024-01-25T21:58:13;9.68;;;6.85;;
50689;SDS011;71367;48.298;11.238;2024-01-25T22:13:16;11.25;;;7.57;;
50689;SDS011;71367;48.298;11.238;2024-01-25T22:28:20;13.07;;;8.20;;
50689;SDS011;71367;48.298;11.238;2024-01-25T22:43:23;13.25;;;8.50;;
50689;SDS011;71367;48.298;11.238;2024-01-25T22:58:29;11.80;;;7.90;;
50689;SDS011;71367;48.298;11.238;2024-01-25T23:13:32;13.73;;;8.90;;
50689;SDS011;71367;48.298;11.238;2024-01-25T23:28:41;13.32;;;9.18;;
50689;SDS011;71367;48.298;11.238;2024-01-25T23:43:44;13.43;;;9.18;;
50689;SDS011;71367;48.298;11.238;2024-01-25T23:58:48;13.30;;;9.02;;
